sensor_id;sensor_type;location;lat;lon;timestamp;pressure;altitude;pressure_sealevel;temperature;humidity
51299;BME280;37382;45.192;9.790;2023-08-20T00:02:03;101371.72;;;27.59;100.00
51299;BME280;37382;45.192;9.790;2023-08-20T00:04:35;101362.19;;;27.60;100.00
51299;BME280;37382;45.192;9.790;2023-08-20T00:07:04;101366.03;;;27.64;100.00
51299;BME280;37382;45.192;9.790;2023-08-20T00:09:31;101365.41;;;27.48;100.00
51299;BME280;37382;45.192;9.790;2023-08-20T00:12:00;101364.94;;;27.41;100.00
51299;BME280;37382;45.192;9.790;2023-08-20T00:15:06;101375.03;;;27.37;100.00
51299;BME280;37382;45.192;9.790;2023-08-20T00:17:35;101367.47;;;27.62;100.00
51299;BME280;37382;45.192;9.790;2023-08-20T00:20:06;101376.81;;;27.76;100.00
51299;BME280;37382;45.192;9.790;2023-08-20T00:22:41;101379.19;;;27.64;100.00
51299;BME280;37382;45.192;9.790;2023-08-20T00:25:10;101383.53;;;27.51;100.00
51299;BME280;37382;45.192;9.790;2023-08-20T00:27:39;101381.75;;;27.31;100.00
51299;BME280;37382;45.192;9.790;2023-08-20T00:30:07;101380.97;;;27.25;100.00
51299;BME280;37382;45.192;9.790;2023-08-20T00:32:36;101378.53;;;27.19;100.00
51299;BME280;37382;45.192;9.790;2023-08-20T00:35:04;101371.09;;;27.38;100.00
51299;BME280;37382;45.192;9.790;2023-08-20T00:37:36;101374.78;;;27.28;100.00
51299;BME280;37382;45.192;9.790;2023-08-20T00:40:04;101377.75;;;27.13;100.00
51299;BME280;37382;45.192;9.790;2023-08-20T00:42:32;101365.56;;;27.33;100.00
51299;BME280;37382;45.192;9.790;2023-08-20T00:44:59;101373.59;;;27.40;100.00
51299;BME280;37382;45.192;9.790;2023-08-20T00:47:27;101374.72;;;27.39;100.00
51299;BME280;37382;45.192;9.790;2023-08-20T00:49:55;101373.06;;;27.38;100.00
51299;BME280;37382;45.192;9.790;2023-08-20T00:52:24;101369.03;;;27.20;100.00
51299;BME280;37382;45.192;9.790;2023-08-20T00:54:51;101363.31;;;27.30;100.00
51299;BME280;37382;45.192;9.790;2023-08-20T00:57:20;101372.59;;;27.25;100.00
51299;BME280;37382;45.192;9.790;2023-08-20T00:59:47;101374.78;;;27.28;100.00
51299;BME280;37382;45.192;9.790;2023-08-20T01:02:20;101366.47;;;27.23;100.00
51299;BME280;37382;45.192;9.790;2023-08-20T01:04:48;101376.03;;;27.17;100.00
51299;BME280;37382;45.192;9.790;2023-08-20T01:10:56;101375.22;;;27.16;100.00
51299;BME280;37382;45.192;9.790;2023-08-20T01:13:25;101379.00;;;26.96;100.00
51299;BME280;37382;45.192;9.790;2023-08-20T01:15:53;101370.53;;;27.12;100.00
51299;BME280;37382;45.192;9.790;2023-08-20T01:18:20;101379.38;;;27.19;100.00
51299;BME280;37382;45.192;9.790;2023-08-20T01:20:55;101382.25;;;27.09;100.00
51299;BME280;37382;45.192;9.790;2023-08-20T01:23:44;101375.34;;;27.01;100.00
51299;BME280;37382;45.192;9.790;2023-08-20T01:26:46;101392.16;;;26.96;100.00
51299;BME280;37382;45.192;9.790;2023-08-20T01:29:16;101390.88;;;26.83;100.00
51299;BME280;37382;45.192;9.790;2023-08-20T01:31:44;101388.63;;;27.14;100.00
51299;BME280;37382;45.192;9.790;2023-08-20T01:34:12;101391.06;;;26.57;100.00
51299;BME280;37382;45.192;9.790;2023-08-20T01:36:41;101399.00;;;26.79;100.00
51299;BME280;37382;45.192;9.790;2023-08-20T01:39:10;101391.06;;;26.92;100.00
51299;BME280;37382;45.192;9.790;2023-08-20T01:41:38;101398.50;;;26.72;100.00
51299;BME280;37382;45.192;9.790;2023-08-20T01:44:05;101392.69;;;26.58;100.00
51299;BME280;37382;45.192;9.790;2023-08-20T01:46:34;101404.47;;;26.50;100.00
51299;BME280;37382;45.192;9.790;2023-08-20T01:49:01;101399.72;;;26.56;100.00
51299;BME280;37382;45.192;9.790;2023-08-20T01:51:28;101406.59;;;26.74;100.00
51299;BME280;37382;45.192;9.790;2023-08-20T01:53:56;101395.03;;;26.86;100.00
51299;BME280;37382;45.192;9.790;2023-08-20T01:56:23;101398.97;;;26.85;100.00
51299;BME280;37382;45.192;9.790;2023-08-20T01:58:51;101400.25;;;26.58;100.00
51299;BME280;37382;45.192;9.790;2023-08-20T02:01:20;101399.25;;;26.38;100.00
51299;BME280;37382;45.192;9.790;2023-08-20T02:03:47;101397.44;;;26.18;100.00
51299;BME280;37382;45.192;9.790;2023-08-20T02:06:15;101403.03;;;26.08;100.00
51299;BME280;37382;45.192;9.790;2023-08-20T02:08:45;101398.28;;;26.14;100.00
51299;BME280;37382;45.192;9.790;2023-08-20T02:11:12;101400.25;;;26.08;100.00
51299;BME280;37382;45.192;9.790;2023-08-20T02:13:40;101405.09;;;26.42;100.00
51299;BME280;37382;45.192;9.790;2023-08-20T02:16:07;101411.84;;;26.36;100.00
51299;BME280;37382;45.192;9.790;2023-08-20T02:18:35;101407.72;;;26.73;100.00
51299;BME280;37382;45.192;9.790;2023-08-20T02:21:03;101403.44;;;26.41;100.00
51299;BME280;37382;45.192;9.790;2023-08-20T02:23:30;101403.47;;;26.36;100.00
51299;BME280;37382;45.192;9.790;2023-08-20T02:25:58;101405.00;;;26.07;100.00
51299;BME280;37382;45.192;9.790;2023-08-20T02:28:27;101406.13;;;25.96;100.00
51299;BME280;37382;45.192;9.790;2023-08-20T02:30:55;101395.84;;;26.02;100.00
51299;BME280;37382;45.192;9.790;2023-08-20T02:33:25;101392.78;;;26.48;100.00
51299;BME280;37382;45.192;9.790;2023-08-20T02:35:52;101400.41;;;26.32;100.00
51299;BME280;37382;45.192;9.790;2023-08-20T02:38:21;101405.53;;;26.09;100.00
51299;BME280;37382;45.192;9.790;2023-08-20T02:40:49;101407.28;;;26.00;100.00
51299;BME280;37382;45.192;9.790;2023-08-20T02:43:16;101409.81;;;25.86;100.00
51299;BME280;37382;45.192;9.790;2023-08-20T02:45:43;101406.47;;;25.79;100.00
51299;BME280;37382;45.192;9.790;2023-08-20T02:48:14;101409.03;;;25.65;100.00
51299;BME280;37382;45.192;9.790;2023-08-20T02:50:42;101412.69;;;25.50;100.00
51299;BME280;37382;45.192;9.790;2023-08-20T02:53:09;101413.81;;;25.54;100.00
51299;BME280;37382;45.192;9.790;2023-08-20T02:55:37;101413.00;;;25.44;100.00
51299;BME280;37382;45.192;9.790;2023-08-20T02:58:05;101421.63;;;25.47;100.00
51299;BME280;37382;45.192;9.790;2023-08-20T03:00:36;101417.19;;;25.41;100.00
51299;BME280;37382;45.192;9.790;2023-08-20T03:03:05;101422.19;;;25.49;100.00
51299;BME280;37382;45.192;9.790;2023-08-20T03:05:35;101421.94;;;25.41;100.00
51299;BME280;37382;45.192;9.790;2023-08-20T03:08:04;101417.19;;;25.26;100.00
51299;BME280;37382;45.192;9.790;2023-08-20T03:10:32;101421.09;;;25.35;100.00
51299;BME280;37382;45.192;9.790;2023-08-20T03:13:01;101426.38;;;25.36;100.00
51299;BME280;37382;45.192;9.790;2023-08-20T03:15:29;101416.09;;;25.32;100.00
51299;BME280;37382;45.192;9.790;2023-08-20T03:17:57;101411.38;;;25.32;100.00
51299;BME280;37382;45.192;9.790;2023-08-20T03:20:24;101421.09;;;25.40;100.00
51299;BME280;37382;45.192;9.790;2023-08-20T03:22:52;101414.97;;;25.38;100.00
51299;BME280;37382;45.192;9.790;2023-08-20T03:25:20;101421.03;;;25.61;100.00
51299;BME280;37382;45.192;9.790;2023-08-20T03:27:47;101423.03;;;25.50;100.00
51299;BME280;37382;45.192;9.790;2023-08-20T03:30:15;101427.44;;;25.66;100.00
51299;BME280;37382;45.192;9.790;2023-08-20T03:32:44;101430.53;;;25.54;100.00
51299;BME280;37382;45.192;9.790;2023-08-20T03:35:12;101429.38;;;25.71;100.00
51299;BME280;37382;45.192;9.790;2023-08-20T03:37:39;101424.06;;;25.74;100.00
51299;BME280;37382;45.192;9.790;2023-08-20T03:40:07;101426.63;;;25.55;100.00
51299;BME280;37382;45.192;9.790;2023-08-20T03:42:35;101419.00;;;25.92;100.00
51299;BME280;37382;45.192;9.790;2023-08-20T03:45:04;101419.53;;;26.04;100.00
51299;BME280;37382;45.192;9.790;2023-08-20T03:47:31;101424.75;;;26.21;100.00
51299;BME280;37382;45.192;9.790;2023-08-20T03:49:59;101420.84;;;26.22;100.00
51299;BME280;37382;45.192;9.790;2023-08-20T03:52:27;101422.94;;;25.86;100.00
51299;BME280;37382;45.192;9.790;2023-08-20T03:54:54;101423.78;;;25.76;100.00
51299;BME280;37382;45.192;9.790;2023-08-20T03:57:22;101424.03;;;25.85;100.00
51299;BME280;37382;45.192;9.790;2023-08-20T03:59:50;101425.66;;;25.96;100.00
51299;BME280;37382;45.192;9.790;2023-08-20T04:02:18;101422.66;;;25.77;100.00
51299;BME280;37382;45.192;9.790;2023-08-20T04:04:45;101428.78;;;25.84;100.00
51299;BME280;37382;45.192;9.790;2023-08-20T04:07:13;101426.84;;;25.80;100.00
51299;BME280;37382;45.192;9.790;2023-08-20T04:09:40;101435.25;;;25.64;100.00
51299;BME280;37382;45.192;9.790;2023-08-20T04:12:09;101431.06;;;25.56;100.00
51299;BME280;37382;45.192;9.790;2023-08-20T04:14:37;101429.13;;;25.57;100.00
51299;BME280;37382;45.192;9.790;2023-08-20T04:17:05;101429.16;;;25.47;100.00
51299;BME280;37382;45.192;9.790;2023-08-20T04:19:32;101428.06;;;25.37;100.00
51299;BME280;37382;45.192;9.790;2023-08-20T04:22:00;101432.50;;;25.33;100.00
51299;BME280;37382;45.192;9.790;2023-08-20T04:24:28;101435.31;;;25.23;100.00
51299;BME280;37382;45.192;9.790;2023-08-20T04:26:55;101434.22;;;25.29;100.00
51299;BME280;37382;45.192;9.790;2023-08-20T04:29:26;101438.34;;;25.27;100.00
51299;BME280;37382;45.192;9.790;2023-08-20T04:31:55;101446.44;;;25.23;100.00
51299;BME280;37382;45.192;9.790;2023-08-20T04:34:22;101444.47;;;25.60;100.00
51299;BME280;37382;45.192;9.790;2023-08-20T04:36:52;101444.78;;;25.37;100.00
51299;BME280;37382;45.192;9.790;2023-08-20T04:39:20;101455.59;;;25.18;100.00
51299;BME280;37382;45.192;9.790;2023-08-20T04:41:50;101447.81;;;25.51;100.00
51299;BME280;37382;45.192;9.790;2023-08-20T04:44:19;101450.31;;;25.53;100.00
51299;BME280;37382;45.192;9.790;2023-08-20T04:46:48;101447.81;;;25.41;100.00
51299;BME280;37382;45.192;9.790;2023-08-20T04:49:17;101452.59;;;25.35;100.00
51299;BME280;37382;45.192;9.790;2023-08-20T04:51:44;101451.72;;;25.25;100.00
51299;BME280;37382;45.192;9.790;2023-08-20T04:54:12;101449.78;;;25.35;100.00
51299;BME280;37382;45.192;9.790;2023-08-20T04:56:39;101455.06;;;25.42;100.00
51299;BME280;37382;45.192;9.790;2023-08-20T04:59:07;101453.69;;;25.34;100.00
51299;BME280;37382;45.192;9.790;2023-08-20T05:02:04;101455.06;;;25.32;100.00
51299;BME280;37382;45.192;9.790;2023-08-20T05:04:40;101473.72;;;25.36;100.00
51299;BME280;37382;45.192;9.790;2023-08-20T05:07:08;101466.19;;;25.47;100.00
51299;BME280;37382;45.192;9.790;2023-08-20T05:09:36;101477.06;;;25.54;100.00
51299;BME280;37382;45.192;9.790;2023-08-20T05:12:07;101469.25;;;25.61;100.00
51299;BME280;37382;45.192;9.790;2023-08-20T05:14:35;101474.28;;;25.64;100.00
51299;BME280;37382;45.192;9.790;2023-08-20T05:17:02;101475.34;;;25.79;100.00
51299;BME280;37382;45.192;9.790;2023-08-20T05:19:30;101483.41;;;25.90;100.00
51299;BME280;37382;45.192;9.790;2023-08-20T05:21:58;101482.91;;;25.57;100.00
51299;BME280;37382;45.192;9.790;2023-08-20T05:24:31;101486.53;;;25.48;100.00
51299;BME280;37382;45.192;9.790;2023-08-20T05:27:09;101490.69;;;25.61;100.00
51299;BME280;37382;45.192;9.790;2023-08-20T05:29:37;101493.75;;;25.80;100.00
51299;BME280;37382;45.192;9.790;2023-08-20T05:32:06;101494.81;;;25.89;100.00
51299;BME280;37382;45.192;9.790;2023-08-20T05:34:34;101490.34;;;25.93;100.00
51299;BME280;37382;45.192;9.790;2023-08-20T05:37:02;101483.94;;;25.92;100.00
51299;BME280;37382;45.192;9.790;2023-08-20T05:39:37;101495.66;;;25.89;100.00
51299;BME280;37382;45.192;9.790;2023-08-20T05:42:05;101491.16;;;26.09;100.00
51299;BME280;37382;45.192;9.790;2023-08-20T05:44:33;101499.50;;;26.14;100.00
51299;BME280;37382;45.192;9.790;2023-08-20T05:47:03;101493.03;;;26.34;100.00
51299;BME280;37382;45.192;9.790;2023-08-20T05:49:33;101494.47;;;26.21;100.00
51299;BME280;37382;45.192;9.790;2023-08-20T05:52:01;101494.47;;;26.21;100.00
51299;BME280;37382;45.192;9.790;2023-08-20T05:54:28;101494.38;;;26.42;100.00
51299;BME280;37382;45.192;9.790;2023-08-20T05:56:57;101502.50;;;26.33;100.00
51299;BME280;37382;45.192;9.790;2023-08-20T05:59:25;101501.22;;;26.05;100.00
51299;BME280;37382;45.192;9.790;2023-08-20T06:01:53;101505.84;;;26.35;100.00
51299;BME280;37382;45.192;9.790;2023-08-20T06:04:23;101515.63;;;26.27;100.00
51299;BME280;37382;45.192;9.790;2023-08-20T06:06:51;101514.47;;;26.39;100.00
51299;BME280;37382;45.192;9.790;2023-08-20T06:09:18;101518.13;;;26.29;100.00
51299;BME280;37382;45.192;9.790;2023-08-20T06:11:46;101518.13;;;26.29;100.00
51299;BME280;37382;45.192;9.790;2023-08-20T06:14:13;101515.59;;;26.33;100.00
51299;BME280;37382;45.192;9.790;2023-08-20T06:16:41;101517.47;;;26.53;100.00
51299;BME280;37382;45.192;9.790;2023-08-20T06:19:08;101519.13;;;26.54;100.00
51299;BME280;37382;45.192;9.790;2023-08-20T06:21:35;101524.78;;;26.38;100.00
51299;BME280;37382;45.192;9.790;2023-08-20T06:24:03;101525.94;;;26.87;100.00
51299;BME280;37382;45.192;9.790;2023-08-20T06:26:31;101531.75;;;26.96;100.00
51299;BME280;37382;45.192;9.790;2023-08-20T06:28:58;101526.56;;;27.19;100.00
51299;BME280;37382;45.192;9.790;2023-08-20T06:31:26;101532.28;;;27.43;100.00
51299;BME280;37382;45.192;9.790;2023-08-20T06:33:54;101537.28;;;27.46;100.00
51299;BME280;37382;45.192;9.790;2023-08-20T06:36:21;101530.59;;;27.42;100.00
51299;BME280;37382;45.192;9.790;2023-08-20T06:38:49;101532.72;;;27.55;100.00
51299;BME280;37382;45.192;9.790;2023-08-20T06:41:17;101538.69;;;27.73;100.00
51299;BME280;37382;45.192;9.790;2023-08-20T06:43:44;101525.66;;;27.63;100.00
51299;BME280;37382;45.192;9.790;2023-08-20T06:46:12;101530.50;;;27.81;100.00
51299;BME280;37382;45.192;9.790;2023-08-20T06:48:40;101532.28;;;28.01;100.00
51299;BME280;37382;45.192;9.790;2023-08-20T06:51:11;101533.84;;;28.13;100.00
51299;BME280;37382;45.192;9.790;2023-08-20T06:53:39;101531.09;;;28.08;100.00
51299;BME280;37382;45.192;9.790;2023-08-20T06:56:08;101540.56;;;28.12;100.00
51299;BME280;37382;45.192;9.790;2023-08-20T06:58:40;101531.03;;;28.13;100.00
51299;BME280;37382;45.192;9.790;2023-08-20T07:01:08;101537.09;;;28.20;100.00
51299;BME280;37382;45.192;9.790;2023-08-20T07:03:40;101544.63;;;28.25;100.00
51299;BME280;37382;45.192;9.790;2023-08-20T07:06:09;101536.16;;;28.06;100.00
51299;BME280;37382;45.192;9.790;2023-08-20T07:08:38;101541.28;;;27.93;100.00
51299;BME280;37382;45.192;9.790;2023-08-20T07:11:07;101540.66;;;28.01;100.00
51299;BME280;37382;45.192;9.790;2023-08-20T07:13:35;101542.97;;;28.43;100.00
51299;BME280;37382;45.192;9.790;2023-08-20T07:16:02;101544.53;;;28.54;100.00
51299;BME280;37382;45.192;9.790;2023-08-20T07:18:30;101539.88;;;28.68;100.00
51299;BME280;37382;45.192;9.790;2023-08-20T07:20:58;101548.09;;;28.60;100.00
51299;BME280;37382;45.192;9.790;2023-08-20T07:23:26;101551.38;;;28.67;100.00
51299;BME280;37382;45.192;9.790;2023-08-20T07:26:09;101541.72;;;28.78;100.00
51299;BME280;37382;45.192;9.790;2023-08-20T07:28:40;101547.81;;;28.37;100.00
51299;BME280;37382;45.192;9.790;2023-08-20T07:31:31;101557.44;;;28.74;100.00
51299;BME280;37382;45.192;9.790;2023-08-20T07:34:00;101557.13;;;28.95;100.00
51299;BME280;37382;45.192;9.790;2023-08-20T07:36:32;101557.03;;;29.19;100.00
51299;BME280;37382;45.192;9.790;2023-08-20T07:39:00;101557.63;;;29.21;100.00
51299;BME280;37382;45.192;9.790;2023-08-20T07:41:29;101555.25;;;29.28;100.00
51299;BME280;37382;45.192;9.790;2023-08-20T07:43:57;101551.75;;;29.36;100.00
51299;BME280;37382;45.192;9.790;2023-08-20T07:46:24;101550.41;;;29.34;100.00
51299;BME280;37382;45.192;9.790;2023-08-20T07:48:52;101557.63;;;29.54;100.00
51299;BME280;37382;45.192;9.790;2023-08-20T07:51:20;101549.75;;;29.56;100.00
51299;BME280;37382;45.192;9.790;2023-08-20T07:53:47;101548.84;;;29.60;100.00
51299;BME280;37382;45.192;9.790;2023-08-20T07:56:15;101555.28;;;29.75;100.00
51299;BME280;37382;45.192;9.790;2023-08-20T07:58:43;101551.00;;;29.50;100.00
51299;BME280;37382;45.192;9.790;2023-08-20T08:01:10;101546.53;;;29.82;100.00
51299;BME280;37382;45.192;9.790;2023-08-20T08:03:39;101553.19;;;29.99;100.00
51299;BME280;37382;45.192;9.790;2023-08-20T08:06:07;101553.78;;;29.83;100.00
51299;BME280;37382;45.192;9.790;2023-08-20T08:08:35;101547.34;;;29.82;100.00
51299;BME280;37382;45.192;9.790;2023-08-20T08:11:03;101541.63;;;30.01;100.00
51299;BME280;37382;45.192;9.790;2023-08-20T08:13:30;101543.63;;;29.87;100.00
51299;BME280;37382;45.192;9.790;2023-08-20T08:15:58;101550.38;;;29.99;100.00
51299;BME280;37382;45.192;9.790;2023-08-20T08:18:25;101542.69;;;30.19;100.00
51299;BME280;37382;45.192;9.790;2023-08-20T08:20:53;101541.44;;;30.11;100.00
51299;BME280;37382;45.192;9.790;2023-08-20T08:23:21;101546.13;;;30.30;100.00
51299;BME280;37382;45.192;9.790;2023-08-20T08:25:48;101553.59;;;30.21;100.00
51299;BME280;37382;45.192;9.790;2023-08-20T08:28:16;101547.78;;;30.31;100.00
51299;BME280;37382;45.192;9.790;2023-08-20T08:30:44;101538.13;;;30.37;100.00
51299;BME280;37382;45.192;9.790;2023-08-20T08:33:11;101542.09;;;30.50;100.00
51299;BME280;37382;45.192;9.790;2023-08-20T08:35:39;101535.41;;;30.60;100.00
51299;BME280;37382;45.192;9.790;2023-08-20T08:38:07;101545.50;;;30.05;100.00
51299;BME280;37382;45.192;9.790;2023-08-20T08:40:35;101537.09;;;30.47;100.00
51299;BME280;37382;45.192;9.790;2023-08-20T08:43:04;101535.31;;;30.37;100.00
51299;BME280;37382;45.192;9.790;2023-08-20T08:45:33;101544.31;;;30.76;100.00
51299;BME280;37382;45.192;9.790;2023-08-20T08:48:02;101538.09;;;30.65;100.00
51299;BME280;37382;45.192;9.790;2023-08-20T08:50:31;101537.41;;;30.45;100.00
51299;BME280;37382;45.192;9.790;2023-08-20T08:53:00;101538.19;;;30.74;100.00
51299;BME280;37382;45.192;9.790;2023-08-20T08:55:29;101539.31;;;30.73;100.00
51299;BME280;37382;45.192;9.790;2023-08-20T08:57:56;101528.09;;;30.86;100.00
51299;BME280;37382;45.192;9.790;2023-08-20T09:00:24;101534.03;;;30.71;100.00
51299;BME280;37382;45.192;9.790;2023-08-20T09:02:51;101532.66;;;30.82;100.00
51299;BME280;37382;45.192;9.790;2023-08-20T09:05:19;101528.13;;;30.95;100.00
51299;BME280;37382;45.192;9.790;2023-08-20T09:07:46;101525.88;;;30.83;100.00
51299;BME280;37382;45.192;9.790;2023-08-20T09:10:16;101528.50;;;31.16;100.00
51299;BME280;37382;45.192;9.790;2023-08-20T09:12:47;101524.31;;;31.28;100.00
51299;BME280;37382;45.192;9.790;2023-08-20T09:15:16;101526.34;;;31.36;100.00
51299;BME280;37382;45.192;9.790;2023-08-20T09:17:44;101528.00;;;31.14;100.00
51299;BME280;37382;45.192;9.790;2023-08-20T09:20:11;101523.03;;;31.34;100.00
51299;BME280;37382;45.192;9.790;2023-08-20T09:22:39;101518.97;;;31.49;100.00
51299;BME280;37382;45.192;9.790;2023-08-20T09:25:07;101516.94;;;31.18;100.00
51299;BME280;37382;45.192;9.790;2023-08-20T09:27:39;101516.13;;;31.40;100.00
51299;BME280;37382;45.192;9.790;2023-08-20T09:30:10;101511.06;;;31.51;100.00
51299;BME280;37382;45.192;9.790;2023-08-20T09:32:45;101512.34;;;31.45;100.00
51299;BME280;37382;45.192;9.790;2023-08-20T09:35:18;101518.53;;;30.74;100.00
51299;BME280;37382;45.192;9.790;2023-08-20T09:37:46;101508.09;;;30.88;100.00
51299;BME280;37382;45.192;9.790;2023-08-20T09:40:14;101509.78;;;31.57;100.00
51299;BME280;37382;45.192;9.790;2023-08-20T09:42:42;101503.44;;;31.74;100.00
51299;BME280;37382;45.192;9.790;2023-08-20T09:45:11;101507.97;;;31.92;100.00
51299;BME280;37382;45.192;9.790;2023-08-20T09:47:40;101503.66;;;31.55;100.00
51299;BME280;37382;45.192;9.790;2023-08-20T09:50:10;101506.22;;;31.74;100.00
51299;BME280;37382;45.192;9.790;2023-08-20T09:52:40;101507.63;;;31.94;100.00
51299;BME280;37382;45.192;9.790;2023-08-20T09:55:16;101513.16;;;31.68;100.00
51299;BME280;37382;45.192;9.790;2023-08-20T09:57:47;101499.72;;;32.05;100.00
51299;BME280;37382;45.192;9.790;2023-08-20T10:00:15;101507.81;;;31.98;100.00
51299;BME280;37382;45.192;9.790;2023-08-20T10:02:43;101503.31;;;32.19;100.00
51299;BME280;37382;45.192;9.790;2023-08-20T10:05:12;101505.00;;;32.38;100.00
51299;BME280;37382;45.192;9.790;2023-08-20T10:07:42;101503.00;;;32.38;100.00
51299;BME280;37382;45.192;9.790;2023-08-20T10:10:10;101502.00;;;32.34;99.69
51299;BME280;37382;45.192;9.790;2023-08-20T10:12:40;101499.22;;;32.52;96.58
51299;BME280;37382;45.192;9.790;2023-08-20T10:15:10;101497.94;;;32.67;96.03
51299;BME280;37382;45.192;9.790;2023-08-20T10:17:41;101497.25;;;32.61;95.78
51299;BME280;37382;45.192;9.790;2023-08-20T10:20:09;101494.38;;;32.35;95.13
51299;BME280;37382;45.192;9.790;2023-08-20T10:22:43;101498.78;;;32.76;93.96
51299;BME280;37382;45.192;9.790;2023-08-20T10:25:12;101490.34;;;32.85;91.47
51299;BME280;37382;45.192;9.790;2023-08-20T10:27:48;101489.50;;;32.09;94.91
51299;BME280;37382;45.192;9.790;2023-08-20T10:30:17;101489.31;;;32.72;91.90
51299;BME280;37382;45.192;9.790;2023-08-20T10:32:52;101482.03;;;32.97;88.73
51299;BME280;37382;45.192;9.790;2023-08-20T10:35:25;101477.56;;;32.70;86.15
51299;BME280;37382;45.192;9.790;2023-08-20T10:38:13;101474.06;;;33.16;85.65
51299;BME280;37382;45.192;9.790;2023-08-20T10:40:56;101473.81;;;33.48;87.76
51299;BME280;37382;45.192;9.790;2023-08-20T10:43:46;101476.97;;;33.46;84.73
51299;BME280;37382;45.192;9.790;2023-08-20T10:46:17;101476.88;;;33.25;81.64
51299;BME280;37382;45.192;9.790;2023-08-20T10:49:06;101470.00;;;33.53;78.44
51299;BME280;37382;45.192;9.790;2023-08-20T10:51:36;101466.28;;;33.69;79.07
51299;BME280;37382;45.192;9.790;2023-08-20T10:54:06;101466.25;;;33.87;73.65
51299;BME280;37382;45.192;9.790;2023-08-20T10:56:48;101474.13;;;33.64;73.98
51299;BME280;37382;45.192;9.790;2023-08-20T10:59:26;101462.88;;;33.94;72.31
51299;BME280;37382;45.192;9.790;2023-08-20T11:01:56;101469.63;;;34.01;71.84
51299;BME280;37382;45.192;9.790;2023-08-20T11:04:28;101464.22;;;34.26;75.05
51299;BME280;37382;45.192;9.790;2023-08-20T11:06:56;101467.88;;;34.27;73.61
51299;BME280;37382;45.192;9.790;2023-08-20T11:09:26;101464.75;;;33.90;78.07
51299;BME280;37382;45.192;9.790;2023-08-20T11:11:55;101456.38;;;34.23;71.72
51299;BME280;37382;45.192;9.790;2023-08-20T11:14:24;101458.50;;;34.05;71.06
51299;BME280;37382;45.192;9.790;2023-08-20T11:16:51;101455.75;;;34.26;71.49
51299;BME280;37382;45.192;9.790;2023-08-20T11:19:21;101455.41;;;34.49;70.74
51299;BME280;37382;45.192;9.790;2023-08-20T11:21:50;101452.44;;;34.45;74.14
51299;BME280;37382;45.192;9.790;2023-08-20T11:24:18;101449.25;;;34.77;66.30
51299;BME280;37382;45.192;9.790;2023-08-20T11:26:47;101448.81;;;34.66;66.33
51299;BME280;37382;45.192;9.790;2023-08-20T11:29:16;101447.13;;;34.14;67.52
51299;BME280;37382;45.192;9.790;2023-08-20T11:31:49;101435.91;;;34.56;64.28
51299;BME280;37382;45.192;9.790;2023-08-20T11:34:20;101435.81;;;35.07;66.99
51299;BME280;37382;45.192;9.790;2023-08-20T11:36:49;101434.25;;;35.43;63.91
51299;BME280;37382;45.192;9.790;2023-08-20T11:39:17;101437.31;;;35.50;63.99
51299;BME280;37382;45.192;9.790;2023-08-20T11:41:44;101435.91;;;35.44;63.88
51299;BME280;37382;45.192;9.790;2023-08-20T11:44:19;101434.22;;;34.97;65.82
51299;BME280;37382;45.192;9.790;2023-08-20T11:46:48;101432.41;;;35.14;66.44
51299;BME280;37382;45.192;9.790;2023-08-20T11:49:16;101432.94;;;34.73;65.00
51299;BME280;37382;45.192;9.790;2023-08-20T11:51:47;101425.63;;;35.27;62.75
51299;BME280;37382;45.192;9.790;2023-08-20T11:54:16;101419.97;;;35.27;60.89
51299;BME280;37382;45.192;9.790;2023-08-20T11:56:45;101422.22;;;35.71;60.50
51299;BME280;37382;45.192;9.790;2023-08-20T11:59:14;101421.56;;;35.86;60.51
51299;BME280;37382;45.192;9.790;2023-08-20T12:01:42;101420.94;;;35.43;67.51
51299;BME280;37382;45.192;9.790;2023-08-20T12:04:10;101416.00;;;35.65;65.42
51299;BME280;37382;45.192;9.790;2023-08-20T12:06:38;101416.47;;;36.04;64.54
51299;BME280;37382;45.192;9.790;2023-08-20T12:09:19;101418.09;;;36.30;61.43
51299;BME280;37382;45.192;9.790;2023-08-20T12:11:49;101413.16;;;36.14;58.89
51299;BME280;37382;45.192;9.790;2023-08-20T12:14:18;101406.66;;;36.14;58.58
51299;BME280;37382;45.192;9.790;2023-08-20T12:16:46;101405.13;;;36.17;59.49
51299;BME280;37382;45.192;9.790;2023-08-20T12:19:14;101404.34;;;35.67;61.75
51299;BME280;37382;45.192;9.790;2023-08-20T12:21:41;101400.19;;;35.52;64.71
51299;BME280;37382;45.192;9.790;2023-08-20T12:24:10;101404.78;;;35.56;66.59
51299;BME280;37382;45.192;9.790;2023-08-20T12:26:39;101398.75;;;36.07;65.97
51299;BME280;37382;45.192;9.790;2023-08-20T12:29:07;101400.91;;;35.98;65.15
51299;BME280;37382;45.192;9.790;2023-08-20T12:31:35;101399.72;;;35.99;62.48
51299;BME280;37382;45.192;9.790;2023-08-20T12:34:03;101390.41;;;35.98;63.28
51299;BME280;37382;45.192;9.790;2023-08-20T12:36:31;101388.16;;;36.17;63.45
51299;BME280;37382;45.192;9.790;2023-08-20T12:38:58;101387.91;;;36.50;58.00
51299;BME280;37382;45.192;9.790;2023-08-20T12:41:26;101386.94;;;36.18;55.39
51299;BME280;37382;45.192;9.790;2023-08-20T12:43:54;101392.78;;;36.49;54.62
51299;BME280;37382;45.192;9.790;2023-08-20T12:46:22;101386.97;;;36.58;54.11
51299;BME280;37382;45.192;9.790;2023-08-20T12:48:49;101379.13;;;37.12;54.35
51299;BME280;37382;45.192;9.790;2023-08-20T12:51:17;101377.03;;;36.93;52.69
51299;BME280;37382;45.192;9.790;2023-08-20T12:53:45;101372.28;;;37.13;55.66
51299;BME280;37382;45.192;9.790;2023-08-20T12:56:12;101371.19;;;37.17;50.61
51299;BME280;37382;45.192;9.790;2023-08-20T12:58:41;101367.25;;;37.86;49.35